Impacts TAF Board
For situational awareness. Not to be used for flight planning purposes.
IDs:

KLCH - Lake Charles Rgnl, LA, US

Issued at 2333 UTC 05 Dec 2019
Updated at 0125 UTC 06 Dec 2019
Potential Impact None Slight Moderate High
Time0053Z 06/02Z 06/03Z 06/04Z 06/05Z 06/06Z 06/07Z 06/08Z 06/09Z 06/10Z 06/11Z 06/12Z 06/13Z 06/14Z>>
Type OBS PRVL PRVL PRVL PRVL PRVL PRVL PRVL PRVL PRVL PRVL PRVL PRVL PRVL
VIS 10 >6 >6 >6 >6 >6 >6 >6 >6 >6 >6 >6 >6 >6
CIG -- 200 200 100 100 100 100 25 25 25 25 25 15 15
Cover CLR BKN BKN BKN BKN BKN BKN OVC OVC OVC OVC OVC OVC OVC
FltCat VFR VFR VFR VFR VFR VFR VFR MVFR MVFR MVFR MVFR MVFR MVFR MVFR
WX -- -- -- -- -- -- -- -- -- -- -- -- -- --
WDir 150 160 160 150 150 150 150 160 160 160 160 160 200 200
WSpd 7 4 4 4 4 4 4 3 3 3 3 3 3 3
WGst -- -- -- -- -- -- -- -- -- -- -- -- -- --
Raw TAF
KLCH 052333Z 0600/0624 16004KT P6SM BKN200
  FM060400 15004KT P6SM SCT025 BKN100
  FM060800 16003KT P6SM BKN025 OVC100
  FM061300 20003KT P6SM OVC015
  FM061700 28008KT P6SM SCT025 SCT250
  FM062100 31008KT P6SM FEW250


Raw METAR
KLCH 060053Z 15007KT 10SM CLR 15/12 A3005 RMK AO2 SLP184 T01500122
KLCH 052353Z 15006KT 10SM CLR 16/12 A3005 RMK AO2 SLP182 T01610122 10233 20156 53006
KLCH 052253Z 16006KT 10SM CLR 18/12 A3004 RMK AO2 SLP178 T01830122

METAR Board
Radar Display
Forecast Discussion
For situational awareness. Not to be used for flight planning purposes.